createdAt,value
2017-11-22T00:00:43.153Z,47.8
2017-11-22T00:01:44.771Z,47.7
2017-11-22T00:02:46.387Z,48.2
2017-11-22T00:03:48.283Z,47.8
2017-11-22T00:04:49.913Z,47.9
2017-11-22T00:05:51.802Z,48.4
2017-11-22T00:06:53.453Z,48
2017-11-22T00:07:54.798Z,48.4
2017-11-22T00:08:56.695Z,48
2017-11-22T00:09:58.047Z,48
2017-11-22T00:10:59.943Z,48.1
2017-11-22T00:12:01.560Z,48
2017-11-22T00:13:02.903Z,48.4
2017-11-22T00:14:04.810Z,48.4
2017-11-22T00:15:06.718Z,48
2017-11-22T00:16:08.619Z,48
2017-11-22T00:17:10.231Z,48.3
2017-11-22T00:18:11.565Z,47.9
2017-11-22T00:19:13.462Z,48.4
2017-11-22T00:20:15.160Z,48.2
2017-11-22T00:21:17.059Z,47.8
2017-11-22T00:22:18.402Z,47.8
2017-11-22T00:23:20.307Z,48.4
2017-11-22T00:24:21.928Z,47.8
2017-11-22T00:25:23.833Z,47.9
2017-11-22T00:26:25.726Z,48.3
2017-11-22T00:27:27.628Z,48.3
2017-11-22T00:28:29.248Z,47.8
2017-11-22T00:29:31.168Z,48.4
2017-11-22T00:30:32.488Z,47.8
2017-11-22T00:31:34.385Z,48
2017-11-22T00:32:36.282Z,48.3
2017-11-22T00:33:38.176Z,47.8
2017-11-22T00:34:39.799Z,48.1
2017-11-22T00:35:41.432Z,47.8
2017-11-22T00:36:43.327Z,47.8
2017-11-22T00:37:45.230Z,48.2
2017-11-22T00:38:47.133Z,47.9
2017-11-22T00:39:49.022Z,48.1
2017-11-22T00:40:50.643Z,48
2017-11-22T00:41:52.241Z,47.9
2017-11-22T00:42:54.154Z,48.1
2017-11-22T00:43:55.770Z,48
2017-11-22T00:44:57.108Z,48.2
2017-11-22T00:45:58.730Z,47.9
2017-11-22T00:47:00.072Z,48.2
2017-11-22T00:48:01.961Z,48.2
2017-11-22T00:49:03.584Z,47.9
2017-11-22T00:50:04.631Z,48.2
2017-11-22T00:51:06.528Z,48.2
2017-11-22T00:52:08.424Z,48.1
2017-11-22T00:53:09.762Z,48.1
2017-11-22T00:54:11.098Z,47.9
2017-11-22T00:55:12.749Z,48.1
2017-11-22T00:56:14.089Z,48.3
2017-11-22T00:57:15.706Z,48.2
2017-11-22T00:58:17.047Z,48
2017-11-22T00:59:18.094Z,47.5
2017-11-22T01:00:19.435Z,48.2
2017-11-22T01:01:20.783Z,47.8
2017-11-22T01:02:22.680Z,47.8
2017-11-22T01:03:24.001Z,48.1
2017-11-22T01:04:25.904Z,47.9
2017-11-22T01:05:26.942Z,48
2017-11-22T01:06:28.557Z,48.1
2017-11-22T01:07:30.169Z,47.7
2017-11-22T01:08:31.788Z,48.1
2017-11-22T01:09:33.420Z,48.2
2017-11-22T01:10:35.319Z,48.2
2017-11-22T01:11:36.926Z,48.3
2017-11-22T01:12:38.536Z,48.2
2017-11-22T01:13:40.155Z,47.9
2017-11-22T01:14:41.751Z,48.2
2017-11-22T01:15:43.368Z,48.1
2017-11-22T01:16:44.991Z,48
2017-11-22T01:17:46.329Z,48.1
2017-11-22T01:18:47.949Z,47.9
2017-11-22T01:19:49.567Z,48.3
2017-11-22T01:20:51.515Z,48
2017-11-22T01:21:53.131Z,47.9
2017-11-22T01:22:54.728Z,47.9
2017-11-22T01:23:55.768Z,47.9
2017-11-22T01:24:57.425Z,47.9
2017-11-22T01:25:59.051Z,48.1
2017-11-22T01:27:00.957Z,48.1
2017-11-22T01:28:02.290Z,48.2
2017-11-22T01:29:04.188Z,47.7
2017-11-22T01:30:06.086Z,47.9
2017-11-22T01:31:07.429Z,48.2
2017-11-22T01:32:09.048Z,47.6
2017-11-22T01:33:10.951Z,48.1
2017-11-22T01:34:12.569Z,48.2
2017-11-22T01:35:14.466Z,48.3
2017-11-22T01:36:15.798Z,48.3
2017-11-22T01:37:17.696Z,48.1
2017-11-22T01:38:19.590Z,47.8
2017-11-22T01:39:21.229Z,48.2
2017-11-22T01:40:22.849Z,47.9
2017-11-22T01:41:24.191Z,48.1
2017-11-22T01:42:25.811Z,48
2017-11-22T01:43:27.706Z,48.1
2017-11-22T01:44:29.350Z,48.1
2017-11-22T01:45:30.948Z,47.9
2017-11-22T01:46:32.566Z,48.2
2017-11-22T01:47:33.906Z,48.1
2017-11-22T01:48:35.527Z,47.6
2017-11-22T01:49:37.435Z,48.1
2017-11-22T01:50:39.325Z,47.8
2017-11-22T01:51:41.218Z,47.9
2017-11-22T01:52:43.140Z,48.3
2017-11-22T01:53:44.483Z,48.1
2017-11-22T01:54:46.103Z,47.6
2017-11-22T01:55:47.997Z,47.9
2017-11-22T01:56:49.892Z,47.9
2017-11-22T01:57:51.537Z,48
2017-11-22T01:58:53.156Z,47.9
2017-11-22T01:59:54.498Z,47.7
2017-11-22T02:00:55.838Z,48.1
2017-11-22T02:01:57.179Z,48.2
2017-11-22T02:02:58.499Z,48.1
2017-11-22T02:04:00.123Z,48.1
2017-11-22T02:05:02.020Z,48.2
2017-11-22T02:06:03.643Z,48.1
2017-11-22T02:07:05.262Z,47.9
2017-11-22T02:08:06.599Z,47.9
2017-11-22T02:09:07.924Z,48
2017-11-22T02:10:09.544Z,48.1
2017-11-22T02:11:11.451Z,48.2
2017-11-22T02:12:13.351Z,47.9
2017-11-22T02:13:14.948Z,47.9
2017-11-22T02:14:16.846Z,48
2017-11-22T02:15:18.741Z,47.9
2017-11-22T02:16:20.063Z,48.2
2017-11-22T02:17:21.685Z,48.2
2017-11-22T02:18:23.579Z,48
2017-11-22T02:19:25.198Z,48
2017-11-22T02:20:26.795Z,48.2
2017-11-22T02:21:28.399Z,47.9
2017-11-22T02:22:30.020Z,48
2017-11-22T02:23:31.340Z,47.6
2017-11-22T02:24:33.235Z,48.2
2017-11-22T02:25:34.851Z,48.2
2017-11-22T02:26:36.450Z,48.1
2017-11-22T02:27:38.066Z,48.1
2017-11-22T02:28:39.963Z,47.9
2017-11-22T02:29:41.579Z,47.9
2017-11-22T02:30:43.500Z,48.1
2017-11-22T02:31:44.546Z,47.8
2017-11-22T02:32:45.911Z,48.2
2017-11-22T02:33:47.829Z,47.8
2017-11-22T02:34:49.150Z,48.1
2017-11-22T02:35:50.770Z,48.2
2017-11-22T02:36:52.093Z,48.1
2017-11-22T02:37:53.998Z,48
2017-11-22T02:38:55.632Z,48.2
2017-11-22T02:39:57.278Z,48.1
2017-11-22T02:40:58.875Z,48.1
2017-11-22T02:42:00.196Z,48.2
2017-11-22T02:43:01.817Z,47.8
2017-11-22T02:44:03.443Z,47.9
2017-11-22T02:45:04.793Z,48.1
2017-11-22T02:46:06.391Z,48
2017-11-22T02:47:08.289Z,48.1
2017-11-22T02:48:09.890Z,48.2
2017-11-22T02:49:11.787Z,48
2017-11-22T02:50:13.710Z,47.8
2017-11-22T02:51:15.362Z,48.1
2017-11-22T02:52:17.258Z,47.9
2017-11-22T02:53:19.172Z,47.9
2017-11-22T02:54:20.791Z,48
2017-11-22T02:55:22.414Z,48
2017-11-22T02:56:24.037Z,47.9
2017-11-22T02:57:25.933Z,47.8
2017-11-22T02:58:27.826Z,48
2017-11-22T02:59:29.463Z,48.1
2017-11-22T03:00:31.088Z,48.1
2017-11-22T03:01:32.985Z,48.4
2017-11-22T03:02:34.584Z,47.9
2017-11-22T03:03:36.205Z,47.9
2017-11-22T03:04:37.823Z,47.9
2017-11-22T03:05:39.720Z,47.7
2017-11-22T03:06:41.338Z,48.1
2017-11-22T03:07:43.235Z,47.9
2017-11-22T03:08:45.130Z,48.3
2017-11-22T03:09:46.728Z,48.1
2017-11-22T03:10:48.632Z,48
2017-11-22T03:11:50.249Z,48
2017-11-22T03:12:51.567Z,48
2017-11-22T03:13:53.477Z,48
2017-11-22T03:14:55.078Z,48.2
2017-11-22T03:15:56.973Z,47.9
2017-11-22T03:16:58.608Z,48.2
2017-11-22T03:18:00.494Z,48
2017-11-22T03:19:02.090Z,47.9
2017-11-22T03:20:03.430Z,47.8
2017-11-22T03:21:05.355Z,48.4
2017-11-22T03:22:06.970Z,48.1
2017-11-22T03:23:08.591Z,47.8
2017-11-22T03:24:10.209Z,47.8
2017-11-22T03:25:11.829Z,48.1
2017-11-22T03:26:13.477Z,47.8
2017-11-22T03:27:15.376Z,48
2017-11-22T03:28:17.279Z,48.1
2017-11-22T03:29:19.176Z,48.1
2017-11-22T03:30:20.773Z,48.2
2017-11-22T03:31:22.672Z,47.9
2017-11-22T03:32:24.267Z,47.9
2017-11-22T03:33:26.182Z,48.4
2017-11-22T03:34:28.087Z,47.9
2017-11-22T03:35:29.708Z,47.8
2017-11-22T03:36:31.602Z,47.9
2017-11-22T03:37:33.498Z,48
2017-11-22T03:38:35.394Z,47.9
2017-11-22T03:39:37.290Z,48
2017-11-22T03:40:39.187Z,48.4
2017-11-22T03:41:40.804Z,48
2017-11-22T03:42:42.425Z,48.3
2017-11-22T03:43:44.044Z,48
2017-11-22T03:44:45.952Z,47.9
2017-11-22T03:45:47.575Z,47.9
2017-11-22T03:46:48.896Z,47.9
2017-11-22T03:47:50.802Z,47.8
2017-11-22T03:48:52.713Z,48.5
2017-11-22T03:49:54.620Z,48
2017-11-22T03:50:55.964Z,47.9
2017-11-22T03:51:57.581Z,48
2017-11-22T03:52:59.203Z,48
2017-11-22T03:54:00.822Z,48.2
2017-11-22T03:55:02.441Z,47.9
2017-11-22T03:56:04.059Z,47.9
2017-11-22T03:57:05.954Z,48.3
2017-11-22T03:58:07.847Z,48.4
2017-11-22T03:59:09.187Z,47.9
2017-11-22T04:00:10.806Z,47.8
2017-11-22T04:01:12.424Z,47.8
2017-11-22T04:02:13.746Z,48.4
2017-11-22T04:03:14.787Z,48
2017-11-22T04:04:16.684Z,48.3
2017-11-22T04:05:18.004Z,48
2017-11-22T04:06:19.622Z,48
2017-11-22T04:07:20.678Z,48.1
2017-11-22T04:08:22.313Z,48.3
2017-11-22T04:09:23.637Z,48
2017-11-22T04:10:25.234Z,47.8
2017-11-22T04:11:26.573Z,48
2017-11-22T04:12:28.533Z,48.4
2017-11-22T04:13:29.855Z,48.4
2017-11-22T04:14:31.452Z,48.3
2017-11-22T04:15:33.074Z,48.4
2017-11-22T04:16:34.415Z,48.4
2017-11-22T04:17:36.311Z,48.3
2017-11-22T04:18:37.631Z,48.2
2017-11-22T04:19:39.247Z,48.4
2017-11-22T04:20:40.572Z,48.4
2017-11-22T04:21:41.922Z,48.3
2017-11-22T04:22:43.530Z,47.9
2017-11-22T04:23:44.858Z,48
2017-11-22T04:24:46.473Z,48.4
2017-11-22T04:25:48.364Z,48.5
2017-11-22T04:26:50.261Z,48
2017-11-22T04:27:51.882Z,48.4
2017-11-22T04:28:53.777Z,47.8
2017-11-22T04:29:55.396Z,47.8
2017-11-22T04:30:57.013Z,48.2
2017-11-22T04:31:58.331Z,47.8
2017-11-22T04:32:59.673Z,47.9
2017-11-22T04:34:01.295Z,48
2017-11-22T04:35:02.636Z,48.4
2017-11-22T04:36:04.266Z,47.9
2017-11-22T04:37:05.339Z,47.9
2017-11-22T04:38:06.953Z,47.9
2017-11-22T04:39:08.851Z,47.9
2017-11-22T04:40:10.747Z,48.3
2017-11-22T04:41:12.358Z,47.9
2017-11-22T04:42:13.982Z,47.8
2017-11-22T04:43:15.876Z,47.8
2017-11-22T04:44:17.772Z,48
2017-11-22T04:45:19.667Z,48
2017-11-22T04:46:21.285Z,47.9
2017-11-22T04:47:22.902Z,48.3
2017-11-22T04:48:24.526Z,48.3
2017-11-22T04:49:25.856Z,48
2017-11-22T04:50:27.196Z,47.9
2017-11-22T04:51:28.518Z,48.4
2017-11-22T04:52:29.863Z,48.4
2017-11-22T04:53:31.767Z,48.1
2017-11-22T04:54:33.357Z,48.1
2017-11-22T04:55:35.254Z,47.8
2017-11-22T04:56:36.304Z,48.4
2017-11-22T04:57:37.894Z,47.7
2017-11-22T04:58:39.516Z,48
2017-11-22T04:59:41.135Z,48
2017-11-22T05:00:42.754Z,47.8
2017-11-22T05:01:44.076Z,48.4
2017-11-22T05:02:45.723Z,48
2017-11-22T05:03:47.355Z,48
2017-11-22T05:04:49.250Z,48
2017-11-22T05:05:50.846Z,48.1
2017-11-22T05:06:52.744Z,47.9
2017-11-22T05:07:53.515Z,48.4
2017-11-22T05:08:54.576Z,47.9
2017-11-22T05:09:56.208Z,48.4
2017-11-22T05:10:58.104Z,47.7
2017-11-22T05:11:59.737Z,47.8
2017-11-22T05:13:01.062Z,48.2
2017-11-22T05:14:02.681Z,47.9
2017-11-22T05:15:04.302Z,48.2
2017-11-22T05:16:05.925Z,48.1
2017-11-22T05:17:07.823Z,48
2017-11-22T05:18:09.719Z,48
2017-11-22T05:19:11.056Z,47.6
2017-11-22T05:20:12.943Z,47.9
2017-11-22T05:21:14.561Z,47.7
2017-11-22T05:22:16.179Z,47.6
2017-11-22T05:23:18.075Z,48
2017-11-22T05:24:19.714Z,47.9
2017-11-22T05:25:21.334Z,47.9
2017-11-22T05:26:22.930Z,47.7
2017-11-22T05:27:24.830Z,47.9
2017-11-22T05:28:26.729Z,47.5
2017-11-22T05:29:28.625Z,48
2017-11-22T05:30:30.255Z,47.9
2017-11-22T05:31:31.575Z,48
2017-11-22T05:32:33.194Z,47.7
2017-11-22T05:33:34.814Z,47.5
2017-11-22T05:34:36.435Z,47.6
2017-11-22T05:35:38.335Z,47.5
2017-11-22T05:36:39.949Z,48
2017-11-22T05:37:41.567Z,47.6
2017-11-22T05:38:42.888Z,47.9
2017-11-22T05:39:44.784Z,47.8
2017-11-22T05:40:46.102Z,48
2017-11-22T05:41:47.739Z,48.3
2017-11-22T05:42:49.634Z,47.8
2017-11-22T05:43:51.529Z,47.5
2017-11-22T05:44:52.874Z,47.9
2017-11-22T05:45:54.770Z,48.3
2017-11-22T05:46:56.666Z,47.8
2017-11-22T05:47:58.284Z,47.6
2017-11-22T05:49:00.181Z,47.9
2017-11-22T05:50:02.084Z,47.8
2017-11-22T05:51:03.981Z,48
2017-11-22T05:52:05.610Z,47.8
2017-11-22T05:53:07.231Z,48
2017-11-22T05:54:08.850Z,48
2017-11-22T05:55:10.190Z,47.6
2017-11-22T05:56:11.806Z,48
2017-11-22T05:57:13.701Z,48
2017-11-22T05:58:15.025Z,47.4
2017-11-22T05:59:16.920Z,47.9
2017-11-22T06:00:18.520Z,47.2
2017-11-22T06:01:20.419Z,47.4
2017-11-22T06:02:22.040Z,47.9
2017-11-22T06:03:23.672Z,48
2017-11-22T06:04:24.996Z,47.4
2017-11-22T06:05:26.591Z,47.4
2017-11-22T06:06:28.496Z,47.9
2017-11-22T06:07:30.387Z,47.5
2017-11-22T06:08:32.006Z,47.3
2017-11-22T06:09:33.626Z,47.8
2017-11-22T06:10:35.263Z,47.7
2017-11-22T06:11:36.582Z,47.8
2017-11-22T06:12:38.206Z,47.8
2017-11-22T06:13:39.827Z,47.8
2017-11-22T06:14:41.447Z,47.8
2017-11-22T06:15:43.343Z,47.8
2017-11-22T06:16:44.942Z,47.3
2017-11-22T06:17:46.843Z,47.7
2017-11-22T06:18:48.770Z,47.4
2017-11-22T06:19:50.369Z,47.6
2017-11-22T06:20:52.264Z,47.9
2017-11-22T06:21:53.380Z,47.4
2017-11-22T06:22:55.278Z,47.6
2017-11-22T06:23:56.902Z,47.9
2017-11-22T06:24:58.516Z,47.9
2017-11-22T06:26:00.116Z,47.7
2017-11-22T06:27:01.745Z,47.9
2017-11-22T06:28:03.064Z,47.6
2017-11-22T06:29:04.959Z,47.7
2017-11-22T06:30:06.578Z,47.7
2017-11-22T06:31:07.923Z,47.5
2017-11-22T06:32:09.570Z,47.9
2017-11-22T06:33:11.188Z,47.4
2017-11-22T06:34:12.807Z,47.8
2017-11-22T06:35:14.720Z,47.7
2017-11-22T06:36:16.315Z,47.6
2017-11-22T06:37:18.265Z,47.6
2017-11-22T06:38:19.891Z,48
2017-11-22T06:39:21.493Z,47.9
2017-11-22T06:40:23.389Z,47.5
2017-11-22T06:41:24.713Z,47.5
2017-11-22T06:42:26.612Z,47.5
2017-11-22T06:43:28.508Z,47.3
2017-11-22T06:44:30.407Z,47.6
2017-11-22T06:45:32.024Z,47.6
2017-11-22T06:46:33.930Z,47.2
2017-11-22T06:47:35.643Z,48
2017-11-22T06:48:37.543Z,47.7
2017-11-22T06:49:39.160Z,47.4
2017-11-22T06:50:40.504Z,47.5
2017-11-22T06:51:42.126Z,47.5
2017-11-22T06:52:44.083Z,47.4
2017-11-22T06:53:45.701Z,47.3
2017-11-22T06:54:47.597Z,47.8
2017-11-22T06:55:49.498Z,47.6
2017-11-22T06:56:51.117Z,47.7
2017-11-22T06:57:53.024Z,47.7
2017-11-22T06:58:54.925Z,47.3
2017-11-22T06:59:56.815Z,47.4
2017-11-22T07:00:58.720Z,47.4
2017-11-22T07:02:00.346Z,47.6
2017-11-22T07:03:01.963Z,47.3
2017-11-22T07:04:03.560Z,47.8
2017-11-22T07:05:05.462Z,47.3
2017-11-22T07:06:07.356Z,47.3
2017-11-22T07:07:09.254Z,47.7
2017-11-22T07:08:10.577Z,47.6
2017-11-22T07:09:11.919Z,47.7
2017-11-22T07:10:13.816Z,47.8
2017-11-22T07:11:15.162Z,47.6
2017-11-22T07:12:16.784Z,47.6
2017-11-22T07:13:18.684Z,47.4
2017-11-22T07:14:20.282Z,47.7
2017-11-22T07:15:22.185Z,47.3
2017-11-22T07:16:24.082Z,47.6
2017-11-22T07:17:25.709Z,47.7
2017-11-22T07:18:27.029Z,47.8
2017-11-22T07:19:28.455Z,47.6
2017-11-22T07:20:30.226Z,47.4
2017-11-22T07:21:31.849Z,47.4
2017-11-22T07:22:33.169Z,47.6
2017-11-22T07:23:34.494Z,47.6
2017-11-22T07:24:35.534Z,47.5
2017-11-22T07:25:37.435Z,47.7
2017-11-22T07:26:39.331Z,47.2
2017-11-22T07:27:41.235Z,47.6
2017-11-22T07:28:42.583Z,47.6
2017-11-22T07:29:44.206Z,47.6
2017-11-22T07:30:45.847Z,47.5
2017-11-22T07:31:47.466Z,47.6
2017-11-22T07:32:49.374Z,47.6
2017-11-22T07:33:50.966Z,47.6
2017-11-22T07:34:52.590Z,47.4
2017-11-22T07:35:54.190Z,47.3
2017-11-22T07:36:55.809Z,47.2
2017-11-22T07:37:57.428Z,47.6
2017-11-22T07:38:59.322Z,47.2
2017-11-22T07:40:01.222Z,47.6
2017-11-22T07:41:02.819Z,47.4
2017-11-22T07:42:04.451Z,47.7
2017-11-22T07:43:05.802Z,47.6
2017-11-22T07:44:07.744Z,47.6
2017-11-22T07:45:09.653Z,47.5
2017-11-22T07:46:11.545Z,47.5
2017-11-22T07:47:13.445Z,47.3
2017-11-22T07:48:15.349Z,47.4
2017-11-22T07:49:16.418Z,47.5
2017-11-22T07:50:18.319Z,47.6
2017-11-22T07:51:19.941Z,47.6
2017-11-22T07:52:21.836Z,47.6
2017-11-22T07:53:23.178Z,47.1
2017-11-22T07:54:24.800Z,47.5
2017-11-22T07:55:26.697Z,47.3
2017-11-22T07:56:28.295Z,47.4
2017-11-22T07:57:29.893Z,47.6
2017-11-22T07:58:31.513Z,47.7
2017-11-22T07:59:33.138Z,47.6
2017-11-22T08:00:34.737Z,47.6
2017-11-22T08:01:36.635Z,47.5
2017-11-22T08:02:38.537Z,47.6
2017-11-22T08:03:40.159Z,47.3
2017-11-22T08:04:41.828Z,47.5
2017-11-22T08:05:43.427Z,47.5
2017-11-22T08:06:45.023Z,47.5
2017-11-22T08:07:46.368Z,47.5
2017-11-22T08:08:47.983Z,47.5
2017-11-22T08:09:49.606Z,47.7
2017-11-22T08:10:51.502Z,47.5
2017-11-22T08:11:52.568Z,47.6
2017-11-22T08:12:54.188Z,47.6
2017-11-22T08:13:55.806Z,47.5
2017-11-22T08:14:57.708Z,47.6
2017-11-22T08:15:59.325Z,47.5
2017-11-22T08:17:00.647Z,47.5
2017-11-22T08:18:01.691Z,47.5
2017-11-22T08:19:03.314Z,47.3
2017-11-22T08:20:05.213Z,47.5
2017-11-22T08:21:06.836Z,47.2
2017-11-22T08:22:08.454Z,47.4
2017-11-22T08:23:10.074Z,47.5
2017-11-22T08:24:11.979Z,47.3
2017-11-22T08:25:13.885Z,47.4
2017-11-22T08:26:15.501Z,47.3
2017-11-22T08:27:16.823Z,47
2017-11-22T08:28:18.449Z,47.2
2017-11-22T08:29:19.775Z,47.2
2017-11-22T08:30:21.138Z,47.3
2017-11-22T08:31:22.754Z,47.2
2017-11-22T08:32:24.375Z,47.2
2017-11-22T08:33:25.722Z,47.2
2017-11-22T08:34:27.337Z,47
2017-11-22T08:35:29.235Z,47
2017-11-22T08:36:30.834Z,47
2017-11-22T08:37:32.750Z,47
2017-11-22T08:38:34.366Z,47
2017-11-22T08:39:35.985Z,47
2017-11-22T08:40:37.033Z,47.2
2017-11-22T08:41:38.953Z,47
2017-11-22T08:42:40.848Z,47
2017-11-22T08:43:42.175Z,47.1
2017-11-22T08:44:43.794Z,47.2
2017-11-22T08:45:45.748Z,47.1
2017-11-22T08:46:47.360Z,47.1
2017-11-22T08:47:49.256Z,47
2017-11-22T08:48:50.865Z,47
2017-11-22T08:49:52.573Z,47.3
2017-11-22T08:50:54.469Z,47
2017-11-22T08:51:56.085Z,47.1
2017-11-22T08:52:58.045Z,47.1
2017-11-22T08:53:59.941Z,47.1
2017-11-22T08:55:01.835Z,47.1
2017-11-22T08:56:03.462Z,47.1
2017-11-22T08:57:04.524Z,47.3
2017-11-22T08:58:06.146Z,47.2
2017-11-22T08:59:08.071Z,47.1
2017-11-22T09:00:09.679Z,47.1
2017-11-22T09:01:11.585Z,47.2
2017-11-22T09:02:13.206Z,47.2
2017-11-22T09:03:15.111Z,47
2017-11-22T09:04:16.719Z,47
2017-11-22T09:05:18.346Z,47.1
2017-11-22T09:06:19.460Z,47
2017-11-22T09:07:21.056Z,47
2017-11-22T09:08:22.955Z,47.2
2017-11-22T09:09:24.277Z,47.2
2017-11-22T09:10:25.900Z,47.3
2017-11-22T09:11:27.798Z,47
2017-11-22T09:12:29.414Z,47.1
2017-11-22T09:13:30.739Z,47.1
2017-11-22T09:14:32.065Z,47.1
2017-11-22T09:15:33.690Z,47.2
2017-11-22T09:16:35.031Z,47
2017-11-22T09:17:36.351Z,47.4
2017-11-22T09:18:38.248Z,47.2
2017-11-22T09:19:39.882Z,47.2
2017-11-22T09:20:41.202Z,47.4
2017-11-22T09:21:43.098Z,47.1
2017-11-22T09:22:44.723Z,47
2017-11-22T09:23:46.625Z,47.2
2017-11-22T09:24:47.968Z,47.2
2017-11-22T09:25:49.587Z,47
2017-11-22T09:26:51.209Z,47.2
2017-11-22T09:27:52.555Z,47.2
2017-11-22T09:28:53.883Z,47
2017-11-22T09:29:55.511Z,47
2017-11-22T09:30:57.404Z,47.1
2017-11-22T09:31:59.025Z,47.1
2017-11-22T09:33:00.650Z,47
2017-11-22T09:34:01.974Z,47
2017-11-22T09:35:03.875Z,47
2017-11-22T09:36:05.189Z,47
2017-11-22T09:37:06.806Z,46.9
2017-11-22T09:38:08.701Z,47
2017-11-22T09:39:10.599Z,47
2017-11-22T09:40:11.938Z,47
2017-11-22T09:41:13.833Z,47.1
2017-11-22T09:42:14.875Z,47
2017-11-22T09:43:16.772Z,47
2017-11-22T09:44:18.094Z,47
2017-11-22T09:45:19.729Z,47
2017-11-22T09:46:21.665Z,47
2017-11-22T09:47:23.282Z,47
2017-11-22T09:48:24.628Z,47
2017-11-22T09:49:26.255Z,47
2017-11-22T09:50:27.850Z,47
2017-11-22T09:51:29.752Z,47
2017-11-22T09:52:31.079Z,47
2017-11-22T09:53:32.972Z,47
2017-11-22T09:54:34.597Z,47
2017-11-22T09:55:36.213Z,47
2017-11-22T09:56:37.834Z,47
2017-11-22T09:57:39.481Z,47
2017-11-22T09:58:41.380Z,47
2017-11-22T09:59:42.999Z,47.1
2017-11-22T10:00:44.661Z,47
2017-11-22T10:01:46.262Z,47.1
2017-11-22T10:02:48.163Z,47.1
2017-11-22T10:03:50.065Z,47.2
2017-11-22T10:04:51.681Z,47.1
2017-11-22T10:05:53.591Z,47.1
2017-11-22T10:06:55.209Z,47
2017-11-22T10:07:56.557Z,47
2017-11-22T10:08:58.454Z,47
2017-11-22T10:10:00.062Z,46.8
2017-11-22T10:11:01.961Z,47
2017-11-22T10:12:03.861Z,46.9
2017-11-22T10:13:05.759Z,46.8
2017-11-22T10:14:07.374Z,47.1
2017-11-22T10:15:08.721Z,46.8
2017-11-22T10:16:10.065Z,46.9
2017-11-22T10:17:11.663Z,47
2017-11-22T10:18:12.988Z,46.9
2017-11-22T10:19:14.316Z,46.8
2017-11-22T10:20:16.213Z,46.9
2017-11-22T10:21:18.110Z,47
2017-11-22T10:22:19.454Z,46.9
2017-11-22T10:23:20.797Z,46.9
2017-11-22T10:24:22.693Z,46.8
2017-11-22T10:25:24.014Z,46.8
2017-11-22T10:26:25.630Z,46.7
2017-11-22T10:27:27.535Z,46.7
2017-11-22T10:28:28.860Z,46.8
2017-11-22T10:29:30.754Z,46.8
2017-11-22T10:30:32.652Z,46.7
2017-11-22T10:31:33.971Z,46.8
2017-11-22T10:32:35.870Z,46.7
2017-11-22T10:33:37.211Z,46.7
2017-11-22T10:34:39.156Z,46.8
2017-11-22T10:35:41.056Z,46.9
2017-11-22T10:36:42.955Z,46.7
2017-11-22T10:37:44.854Z,46.7
2017-11-22T10:38:46.756Z,46.8
2017-11-22T10:39:48.097Z,47
2017-11-22T10:40:49.446Z,46.8
2017-11-22T10:41:50.792Z,46.8
2017-11-22T10:42:52.706Z,46.9
2017-11-22T10:43:54.605Z,46.9
2017-11-22T10:44:56.233Z,46.5
2017-11-22T10:45:58.128Z,46.8
2017-11-22T10:47:00.063Z,46.8
2017-11-22T10:48:01.678Z,46.8
2017-11-22T10:49:03.594Z,46.7
2017-11-22T10:50:05.209Z,46.7
2017-11-22T10:51:07.122Z,46.6
2017-11-22T10:52:08.773Z,46.6
2017-11-22T10:53:10.117Z,46.5
2017-11-22T10:54:11.734Z,46.4
2017-11-22T10:55:13.634Z,46.7
2017-11-22T10:56:14.981Z,46.6
2017-11-22T10:57:16.606Z,46.5
2017-11-22T10:58:18.217Z,46.6
2017-11-22T10:59:19.840Z,46.5
2017-11-22T11:00:21.744Z,46.7
2017-11-22T11:01:23.362Z,46.6
2017-11-22T11:02:24.984Z,46.7
2017-11-22T11:03:26.602Z,46.9
2017-11-22T11:04:28.498Z,46.7
2017-11-22T11:05:30.119Z,46.8
2017-11-22T11:06:32.015Z,46.4
2017-11-22T11:07:33.719Z,46.4
2017-11-22T11:08:35.620Z,46.7
2017-11-22T11:09:37.236Z,46.7
2017-11-22T11:10:38.581Z,46.8
2017-11-22T11:11:40.478Z,46.8
2017-11-22T11:12:42.100Z,46.7
2017-11-22T11:13:43.463Z,46.3
2017-11-22T11:14:45.080Z,46.8
2017-11-22T11:15:46.980Z,46.8
2017-11-22T11:16:48.877Z,46.7
2017-11-22T11:17:50.789Z,46.8
2017-11-22T11:18:52.411Z,46.9
2017-11-22T11:19:54.316Z,46.4
2017-11-22T11:20:55.733Z,46.7
2017-11-22T11:21:57.343Z,46.8
2017-11-22T11:22:59.243Z,46.5
2017-11-22T11:24:01.143Z,46.7
2017-11-22T11:25:02.742Z,46.8
2017-11-22T11:26:04.364Z,46.7
2017-11-22T11:27:05.981Z,46.7
2017-11-22T11:28:07.327Z,46.7
2017-11-22T11:29:08.948Z,46.8
2017-11-22T11:30:10.547Z,46.7
2017-11-22T11:31:12.445Z,46.7
2017-11-22T11:32:13.785Z,46.7
2017-11-22T11:33:15.407Z,46.8
2017-11-22T11:34:17.299Z,46.9
2017-11-22T11:35:18.951Z,46.5
2017-11-22T11:36:20.574Z,46.7
2017-11-22T11:37:22.191Z,46.7
2017-11-22T11:38:23.815Z,46.7
2017-11-22T11:39:25.410Z,46.8
2017-11-22T11:40:27.307Z,46.7
2017-11-22T11:41:28.652Z,46.6
2017-11-22T11:42:29.998Z,46.9
2017-11-22T11:43:31.896Z,46.8
2017-11-22T11:44:33.217Z,46.9
2017-11-22T11:45:35.114Z,46.8
2017-11-22T11:46:36.536Z,46.7
2017-11-22T11:47:38.432Z,46.7
2017-11-22T11:48:40.033Z,46.8
2017-11-22T11:49:41.931Z,46.7
2017-11-22T11:50:43.832Z,46.7
2017-11-22T11:51:45.453Z,46.4
2017-11-22T11:52:47.348Z,46.3
2017-11-22T11:53:48.965Z,46.3
2017-11-22T11:54:50.883Z,46.7
2017-11-22T11:55:52.772Z,46.7
2017-11-22T11:56:54.391Z,46.7
2017-11-22T11:57:55.437Z,46.6
2017-11-22T11:58:56.501Z,46.3
2017-11-22T11:59:58.134Z,46.3
2017-11-22T12:00:59.478Z,46.5
2017-11-22T12:02:00.523Z,46.7
2017-11-22T12:03:02.418Z,46.7
2017-11-22T12:04:04.021Z,46.4
2017-11-22T12:05:05.617Z,46.5
2017-11-22T12:06:07.241Z,46.3
2017-11-22T12:07:09.136Z,46.6
2017-11-22T12:08:10.734Z,46.6
2017-11-22T12:09:12.353Z,46.3
2017-11-22T12:10:14.252Z,46.4
2017-11-22T12:11:15.600Z,46.7
2017-11-22T12:12:17.219Z,46.5
2017-11-22T12:13:18.839Z,46.7
2017-11-22T12:14:20.182Z,46.7
2017-11-22T12:15:21.799Z,46.7
2017-11-22T12:16:23.698Z,46.3
2017-11-22T12:17:25.017Z,46.3
2017-11-22T12:18:26.616Z,46.6
2017-11-22T12:19:27.939Z,46.7
2017-11-22T12:20:29.560Z,46.3
2017-11-22T12:21:31.181Z,46.6
2017-11-22T12:22:32.805Z,46.6
2017-11-22T12:23:34.695Z,46.7
2017-11-22T12:24:36.635Z,46.6
2017-11-22T12:25:38.541Z,46.4
2017-11-22T12:26:40.164Z,46.3
2017-11-22T12:27:42.060Z,46.5
2017-11-22T12:28:43.683Z,46.6
2017-11-22T12:29:45.580Z,46.7
2017-11-22T12:30:47.476Z,46.5
2017-11-22T12:31:48.831Z,46.6
2017-11-22T12:32:50.722Z,46.5
2017-11-22T12:33:52.061Z,46.4
2017-11-22T12:34:53.959Z,46.3
2017-11-22T12:35:55.300Z,46.5
2017-11-22T12:36:56.896Z,46.6
2017-11-22T12:37:58.544Z,46.6
2017-11-22T12:39:00.176Z,46.3
2017-11-22T12:40:01.795Z,46.3
2017-11-22T12:41:03.118Z,46.4
2017-11-22T12:42:05.030Z,46.7
2017-11-22T12:43:06.690Z,46.3
2017-11-22T12:44:08.589Z,46.3
2017-11-22T12:45:10.486Z,46.3
2017-11-22T12:46:12.105Z,46.3
2017-11-22T12:47:13.147Z,46.2
2017-11-22T12:48:14.749Z,46.3
2017-11-22T12:49:16.677Z,46.3
2017-11-22T12:50:18.021Z,46.4
2017-11-22T12:51:19.641Z,46.3
2017-11-22T12:52:20.962Z,46.4
2017-11-22T12:53:22.587Z,46.4
2017-11-22T12:54:24.203Z,46.4
2017-11-22T12:55:26.099Z,46.4
2017-11-22T12:56:27.721Z,46.4
2017-11-22T12:57:29.321Z,46.4
2017-11-22T12:58:30.917Z,46.4
2017-11-22T12:59:31.986Z,46.6
2017-11-22T13:00:33.883Z,46.7
2017-11-22T13:01:35.502Z,46.6
2017-11-22T13:02:36.819Z,46.4
2017-11-22T13:03:38.426Z,46.4
2017-11-22T13:04:39.770Z,46.4
2017-11-22T13:05:41.412Z,46.5
2017-11-22T13:06:43.018Z,46.2
2017-11-22T13:07:44.632Z,46.4
2017-11-22T13:08:46.229Z,46.3
2017-11-22T13:09:47.552Z,46.6
2017-11-22T13:10:49.171Z,46.4
2017-11-22T13:11:50.774Z,46.5
2017-11-22T13:12:52.393Z,46.4
2017-11-22T13:13:54.017Z,46.4
2017-11-22T13:14:55.333Z,46.5
2017-11-22T13:15:57.229Z,46.4
2017-11-22T13:16:59.137Z,46.6
2017-11-22T13:18:01.035Z,46.4
2017-11-22T13:19:02.080Z,46.3
2017-11-22T13:20:03.422Z,46.5
2017-11-22T13:21:04.770Z,46.3
2017-11-22T13:22:06.390Z,46.4
2017-11-22T13:23:07.707Z,46.3
2017-11-22T13:24:09.325Z,46.4
2017-11-22T13:25:10.089Z,46.5
2017-11-22T13:26:11.410Z,46.7
2017-11-22T13:27:13.029Z,46.4
2017-11-22T13:28:14.355Z,46.6
2017-11-22T13:29:16.253Z,46.4
2017-11-22T13:30:17.855Z,46.4
2017-11-22T13:31:19.747Z,46.4
2017-11-22T13:32:21.378Z,46.4
2017-11-22T13:33:23.267Z,46.4
2017-11-22T13:34:24.901Z,46.4
2017-11-22T13:35:26.522Z,46.6
2017-11-22T13:36:28.129Z,46.3
2017-11-22T13:37:29.749Z,46.3
2017-11-22T13:38:31.658Z,46.4
2017-11-22T13:39:33.274Z,46.6
2017-11-22T13:40:34.899Z,46.3
2017-11-22T13:41:36.524Z,46.4
2017-11-22T13:42:38.417Z,46.5
2017-11-22T13:43:40.037Z,46.3
2017-11-22T13:44:41.355Z,46.5
2017-11-22T13:45:42.974Z,46.5
2017-11-22T13:46:44.872Z,46.6
2017-11-22T13:47:46.492Z,46.3
2017-11-22T13:48:48.111Z,46.5